sensor_id;sensor_type;location;lat;lon;timestamp;temperature;humidity
26621;DHT22;14253;44.840;10.444;2023-02-11T00:01:38;-2.00;99.90
26621;DHT22;14253;44.840;10.444;2023-02-11T00:04:05;-2.10;99.90
26621;DHT22;14253;44.840;10.444;2023-02-11T00:06:33;-2.00;99.90
26621;DHT22;14253;44.840;10.444;2023-02-11T00:08:59;-2.10;99.90
26621;DHT22;14253;44.840;10.444;2023-02-11T00:11:26;-2.10;99.90
26621;DHT22;14253;44.840;10.444;2023-02-11T00:13:59;-2.10;99.90
26621;DHT22;14253;44.840;10.444;2023-02-11T00:16:26;-2.10;99.90
26621;DHT22;14253;44.840;10.444;2023-02-11T00:18:52;-2.20;99.90
26621;DHT22;14253;44.840;10.444;2023-02-11T00:21:21;-2.10;99.90
26621;DHT22;14253;44.840;10.444;2023-02-11T00:23:48;-2.30;99.90
26621;DHT22;14253;44.840;10.444;2023-02-11T00:26:17;-2.30;99.90
26621;DHT22;14253;44.840;10.444;2023-02-11T00:28:45;-2.20;99.90
26621;DHT22;14253;44.840;10.444;2023-02-11T00:31:12;-2.20;99.90
26621;DHT22;14253;44.840;10.444;2023-02-11T00:33:38;-2.20;99.90
26621;DHT22;14253;44.840;10.444;2023-02-11T00:36:07;-2.20;99.90
26621;DHT22;14253;44.840;10.444;2023-02-11T00:38:33;-2.20;99.90
26621;DHT22;14253;44.840;10.444;2023-02-11T00:40:59;-2.20;99.90
26621;DHT22;14253;44.840;10.444;2023-02-11T00:43:25;-2.30;99.90
26621;DHT22;14253;44.840;10.444;2023-02-11T00:45:51;-2.40;99.90
26621;DHT22;14253;44.840;10.444;2023-02-11T00:48:17;-2.50;99.90
26621;DHT22;14253;44.840;10.444;2023-02-11T00:50:43;-2.50;99.90
26621;DHT22;14253;44.840;10.444;2023-02-11T00:53:10;-2.40;99.90
26621;DHT22;14253;44.840;10.444;2023-02-11T00:55:36;-2.50;99.90
26621;DHT22;14253;44.840;10.444;2023-02-11T00:58:02;-2.50;99.90
26621;DHT22;14253;44.840;10.444;2023-02-11T01:00:28;-2.60;99.90
26621;DHT22;14253;44.840;10.444;2023-02-11T01:08:37;-2.70;99.90
26621;DHT22;14253;44.840;10.444;2023-02-11T01:11:06;-2.60;99.90
26621;DHT22;14253;44.840;10.444;2023-02-11T01:13:34;-2.50;99.90
26621;DHT22;14253;44.840;10.444;2023-02-11T01:16:02;-2.50;99.90
26621;DHT22;14253;44.840;10.444;2023-02-11T01:21:22;-2.40;99.90
26621;DHT22;14253;44.840;10.444;2023-02-11T01:23:50;-2.40;99.90
26621;DHT22;14253;44.840;10.444;2023-02-11T01:26:16;-2.40;99.90
26621;DHT22;14253;44.840;10.444;2023-02-11T01:28:43;-2.50;99.90
26621;DHT22;14253;44.840;10.444;2023-02-11T01:31:09;-2.50;99.90
26621;DHT22;14253;44.840;10.444;2023-02-11T01:33:35;-2.50;99.90
26621;DHT22;14253;44.840;10.444;2023-02-11T01:36:04;-2.50;99.90
26621;DHT22;14253;44.840;10.444;2023-02-11T01:38:32;-2.40;99.90
26621;DHT22;14253;44.840;10.444;2023-02-11T01:41:01;-2.40;99.90
26621;DHT22;14253;44.840;10.444;2023-02-11T01:43:36;-2.40;99.90
26621;DHT22;14253;44.840;10.444;2023-02-11T01:48:41;-2.30;99.90
26621;DHT22;14253;44.840;10.444;2023-02-11T01:51:20;-2.30;99.90
26621;DHT22;14253;44.840;10.444;2023-02-11T01:53:47;-2.20;99.90
26621;DHT22;14253;44.840;10.444;2023-02-11T01:56:35;-2.30;99.90
26621;DHT22;14253;44.840;10.444;2023-02-11T01:59:57;-2.40;99.90
26621;DHT22;14253;44.840;10.444;2023-02-11T02:10:36;-2.40;99.90
26621;DHT22;14253;44.840;10.444;2023-02-11T02:13:04;-2.40;99.90
26621;DHT22;14253;44.840;10.444;2023-02-11T02:15:35;-2.60;99.90
26621;DHT22;14253;44.840;10.444;2023-02-11T02:18:05;-2.60;99.90
26621;DHT22;14253;44.840;10.444;2023-02-11T02:23:17;-2.70;99.90
26621;DHT22;14253;44.840;10.444;2023-02-11T02:26:18;-2.70;99.90
26621;DHT22;14253;44.840;10.444;2023-02-11T02:34:29;-2.60;99.90
26621;DHT22;14253;44.840;10.444;2023-02-11T02:37:08;-2.60;99.90
26621;DHT22;14253;44.840;10.444;2023-02-11T02:39:37;-2.60;99.90
26621;DHT22;14253;44.840;10.444;2023-02-11T02:42:04;-2.70;99.90
26621;DHT22;14253;44.840;10.444;2023-02-11T02:44:31;-2.70;99.90
26621;DHT22;14253;44.840;10.444;2023-02-11T02:46:57;-2.60;99.90
26621;DHT22;14253;44.840;10.444;2023-02-11T02:49:23;-2.60;99.90
26621;DHT22;14253;44.840;10.444;2023-02-11T03:00:21;-2.70;99.90
26621;DHT22;14253;44.840;10.444;2023-02-11T03:08:37;-2.70;99.90
26621;DHT22;14253;44.840;10.444;2023-02-11T03:11:02;-2.90;99.90
26621;DHT22;14253;44.840;10.444;2023-02-11T03:13:32;-3.00;99.90
26621;DHT22;14253;44.840;10.444;2023-02-11T03:16:12;-3.00;99.90
26621;DHT22;14253;44.840;10.444;2023-02-11T03:18:43;-3.00;99.90
26621;DHT22;14253;44.840;10.444;2023-02-11T03:21:11;-2.80;99.90
26621;DHT22;14253;44.840;10.444;2023-02-11T03:23:48;-2.90;99.90
26621;DHT22;14253;44.840;10.444;2023-02-11T03:26:38;-2.90;99.90
26621;DHT22;14253;44.840;10.444;2023-02-11T03:34:50;-2.80;99.90
26621;DHT22;14253;44.840;10.444;2023-02-11T03:40:02;-2.90;99.90
26621;DHT22;14253;44.840;10.444;2023-02-11T03:42:37;-2.90;99.90
26621;DHT22;14253;44.840;10.444;2023-02-11T03:45:08;-2.90;99.90
26621;DHT22;14253;44.840;10.444;2023-02-11T03:47:39;-2.90;99.90
26621;DHT22;14253;44.840;10.444;2023-02-11T03:50:09;-3.00;99.90
26621;DHT22;14253;44.840;10.444;2023-02-11T03:52:37;-3.10;99.90
26621;DHT22;14253;44.840;10.444;2023-02-11T03:55:08;-3.00;99.90
26621;DHT22;14253;44.840;10.444;2023-02-11T03:57:36;-3.10;99.90
26621;DHT22;14253;44.840;10.444;2023-02-11T04:00:03;-3.10;99.90
26621;DHT22;14253;44.840;10.444;2023-02-11T04:02:37;-3.10;99.90
26621;DHT22;14253;44.840;10.444;2023-02-11T04:05:05;-3.10;99.90
26621;DHT22;14253;44.840;10.444;2023-02-11T04:07:32;-3.10;99.90
26621;DHT22;14253;44.840;10.444;2023-02-11T04:09:58;-3.20;99.90
26621;DHT22;14253;44.840;10.444;2023-02-11T04:12:24;-3.20;99.90
26621;DHT22;14253;44.840;10.444;2023-02-11T04:14:50;-3.10;99.90
26621;DHT22;14253;44.840;10.444;2023-02-11T04:17:16;-3.20;99.90
26621;DHT22;14253;44.840;10.444;2023-02-11T04:19:42;-3.20;99.90
26621;DHT22;14253;44.840;10.444;2023-02-11T04:22:08;-3.30;99.90
26621;DHT22;14253;44.840;10.444;2023-02-11T04:24:34;-3.40;99.90
26621;DHT22;14253;44.840;10.444;2023-02-11T04:27:01;-3.40;99.90
26621;DHT22;14253;44.840;10.444;2023-02-11T04:29:27;-3.40;99.90
26621;DHT22;14253;44.840;10.444;2023-02-11T04:31:53;-3.40;99.90
26621;DHT22;14253;44.840;10.444;2023-02-11T04:34:20;-3.30;99.90
26621;DHT22;14253;44.840;10.444;2023-02-11T04:36:46;-3.30;99.90
26621;DHT22;14253;44.840;10.444;2023-02-11T04:39:12;-3.30;99.90
26621;DHT22;14253;44.840;10.444;2023-02-11T04:41:38;-3.30;99.90
26621;DHT22;14253;44.840;10.444;2023-02-11T04:44:04;-3.30;99.90
26621;DHT22;14253;44.840;10.444;2023-02-11T04:46:30;-3.40;99.90
26621;DHT22;14253;44.840;10.444;2023-02-11T04:48:56;-3.30;99.90
26621;DHT22;14253;44.840;10.444;2023-02-11T04:51:23;-3.30;99.90
26621;DHT22;14253;44.840;10.444;2023-02-11T04:53:49;-3.30;99.90
26621;DHT22;14253;44.840;10.444;2023-02-11T04:56:15;-3.30;99.90
26621;DHT22;14253;44.840;10.444;2023-02-11T04:58:41;-3.40;99.90
26621;DHT22;14253;44.840;10.444;2023-02-11T05:01:08;-3.40;99.90
26621;DHT22;14253;44.840;10.444;2023-02-11T05:03:35;-3.50;99.90
26621;DHT22;14253;44.840;10.444;2023-02-11T05:06:01;-3.40;99.90
26621;DHT22;14253;44.840;10.444;2023-02-11T05:08:27;-3.50;99.90
26621;DHT22;14253;44.840;10.444;2023-02-11T05:10:53;-3.40;99.90
26621;DHT22;14253;44.840;10.444;2023-02-11T05:13:19;-3.40;99.90
26621;DHT22;14253;44.840;10.444;2023-02-11T05:15:45;-3.50;99.90
26621;DHT22;14253;44.840;10.444;2023-02-11T05:18:11;-3.50;99.90
26621;DHT22;14253;44.840;10.444;2023-02-11T05:20:42;-3.60;99.90
26621;DHT22;14253;44.840;10.444;2023-02-11T05:23:09;-3.70;99.90
26621;DHT22;14253;44.840;10.444;2023-02-11T05:25:35;-3.50;99.90
26621;DHT22;14253;44.840;10.444;2023-02-11T05:28:01;-3.60;99.90
26621;DHT22;14253;44.840;10.444;2023-02-11T05:30:27;-3.70;99.90
26621;DHT22;14253;44.840;10.444;2023-02-11T05:32:53;-3.70;99.90
26621;DHT22;14253;44.840;10.444;2023-02-11T05:35:19;-3.60;99.90
26621;DHT22;14253;44.840;10.444;2023-02-11T05:37:45;-3.70;99.90
26621;DHT22;14253;44.840;10.444;2023-02-11T05:40:11;-3.70;99.90
26621;DHT22;14253;44.840;10.444;2023-02-11T05:42:37;-3.70;99.90
26621;DHT22;14253;44.840;10.444;2023-02-11T05:45:03;-3.70;99.90
26621;DHT22;14253;44.840;10.444;2023-02-11T05:47:29;-3.60;99.90
26621;DHT22;14253;44.840;10.444;2023-02-11T05:49:55;-3.60;99.90
26621;DHT22;14253;44.840;10.444;2023-02-11T05:52:22;-3.60;99.90
26621;DHT22;14253;44.840;10.444;2023-02-11T05:54:48;-3.60;99.90
26621;DHT22;14253;44.840;10.444;2023-02-11T05:57:14;-3.60;99.90
26621;DHT22;14253;44.840;10.444;2023-02-11T05:59:41;-3.50;99.90
26621;DHT22;14253;44.840;10.444;2023-02-11T06:02:07;-3.50;99.90
26621;DHT22;14253;44.840;10.444;2023-02-11T06:04:34;-3.50;99.90
26621;DHT22;14253;44.840;10.444;2023-02-11T06:07:00;-3.50;99.90
26621;DHT22;14253;44.840;10.444;2023-02-11T06:09:26;-3.50;99.90
26621;DHT22;14253;44.840;10.444;2023-02-11T06:11:52;-3.60;99.90
26621;DHT22;14253;44.840;10.444;2023-02-11T06:14:18;-3.50;99.90
26621;DHT22;14253;44.840;10.444;2023-02-11T06:16:44;-3.50;99.90
26621;DHT22;14253;44.840;10.444;2023-02-11T06:19:11;-3.50;99.90
26621;DHT22;14253;44.840;10.444;2023-02-11T06:21:37;-3.50;99.90
26621;DHT22;14253;44.840;10.444;2023-02-11T06:24:04;-3.50;99.90
26621;DHT22;14253;44.840;10.444;2023-02-11T06:26:31;-3.50;99.90
26621;DHT22;14253;44.840;10.444;2023-02-11T06:29:00;-3.50;99.90
26621;DHT22;14253;44.840;10.444;2023-02-11T06:31:26;-3.40;99.90
26621;DHT22;14253;44.840;10.444;2023-02-11T06:33:52;-3.30;99.90
26621;DHT22;14253;44.840;10.444;2023-02-11T06:36:20;-3.30;99.90
26621;DHT22;14253;44.840;10.444;2023-02-11T06:38:47;-3.30;99.90
26621;DHT22;14253;44.840;10.444;2023-02-11T06:41:15;-3.20;99.90
26621;DHT22;14253;44.840;10.444;2023-02-11T06:43:41;-3.10;99.90
26621;DHT22;14253;44.840;10.444;2023-02-11T06:46:08;-3.10;99.90
26621;DHT22;14253;44.840;10.444;2023-02-11T06:48:34;-3.20;99.90
26621;DHT22;14253;44.840;10.444;2023-02-11T06:51:05;-3.20;99.90
26621;DHT22;14253;44.840;10.444;2023-02-11T06:53:35;-3.20;99.90
26621;DHT22;14253;44.840;10.444;2023-02-11T06:56:03;-3.10;99.90
26621;DHT22;14253;44.840;10.444;2023-02-11T06:58:29;-3.10;99.90
26621;DHT22;14253;44.840;10.444;2023-02-11T07:00:55;-2.90;99.90
26621;DHT22;14253;44.840;10.444;2023-02-11T07:03:21;-2.80;99.90
26621;DHT22;14253;44.840;10.444;2023-02-11T07:05:47;-2.60;99.90
26621;DHT22;14253;44.840;10.444;2023-02-11T07:08:13;-2.40;99.90
26621;DHT22;14253;44.840;10.444;2023-02-11T07:10:39;-2.20;99.90
26621;DHT22;14253;44.840;10.444;2023-02-11T07:13:05;-2.10;99.90
26621;DHT22;14253;44.840;10.444;2023-02-11T07:15:31;-1.90;99.90
26621;DHT22;14253;44.840;10.444;2023-02-11T07:17:57;-1.80;99.90
26621;DHT22;14253;44.840;10.444;2023-02-11T07:20:24;-1.70;99.90
26621;DHT22;14253;44.840;10.444;2023-02-11T07:22:51;-1.50;99.90
26621;DHT22;14253;44.840;10.444;2023-02-11T07:25:16;-1.30;99.90
26621;DHT22;14253;44.840;10.444;2023-02-11T07:27:42;-1.10;99.90
26621;DHT22;14253;44.840;10.444;2023-02-11T07:30:09;-0.90;99.90
26621;DHT22;14253;44.840;10.444;2023-02-11T07:32:35;-0.80;99.90
26621;DHT22;14253;44.840;10.444;2023-02-11T07:35:01;-0.70;99.90
26621;DHT22;14253;44.840;10.444;2023-02-11T07:37:28;-0.50;99.90
26621;DHT22;14253;44.840;10.444;2023-02-11T07:39:54;-0.60;99.90
26621;DHT22;14253;44.840;10.444;2023-02-11T07:42:20;-0.40;99.90
26621;DHT22;14253;44.840;10.444;2023-02-11T07:44:46;-0.20;99.90
26621;DHT22;14253;44.840;10.444;2023-02-11T07:47:12;0.10;99.90
26621;DHT22;14253;44.840;10.444;2023-02-11T07:49:38;0.20;99.90
26621;DHT22;14253;44.840;10.444;2023-02-11T07:52:03;0.50;99.90
26621;DHT22;14253;44.840;10.444;2023-02-11T07:54:29;0.70;99.90
26621;DHT22;14253;44.840;10.444;2023-02-11T07:56:56;0.80;99.90
26621;DHT22;14253;44.840;10.444;2023-02-11T07:59:21;1.00;99.90
26621;DHT22;14253;44.840;10.444;2023-02-11T08:01:50;1.10;99.90
26621;DHT22;14253;44.840;10.444;2023-02-11T08:04:16;1.20;99.90
26621;DHT22;14253;44.840;10.444;2023-02-11T08:06:42;1.20;99.90
26621;DHT22;14253;44.840;10.444;2023-02-11T08:09:13;1.50;99.90
26621;DHT22;14253;44.840;10.444;2023-02-11T08:11:39;1.70;99.90
26621;DHT22;14253;44.840;10.444;2023-02-11T08:14:05;1.70;99.90
26621;DHT22;14253;44.840;10.444;2023-02-11T08:16:33;1.80;99.90
26621;DHT22;14253;44.840;10.444;2023-02-11T08:19:02;1.80;99.90
26621;DHT22;14253;44.840;10.444;2023-02-11T08:21:29;1.80;99.90
26621;DHT22;14253;44.840;10.444;2023-02-11T08:23:55;1.60;99.90
26621;DHT22;14253;44.840;10.444;2023-02-11T08:26:24;1.60;99.90
26621;DHT22;14253;44.840;10.444;2023-02-11T08:28:52;1.40;99.90
26621;DHT22;14253;44.840;10.444;2023-02-11T08:31:23;1.50;99.90
26621;DHT22;14253;44.840;10.444;2023-02-11T08:33:50;1.40;99.90
26621;DHT22;14253;44.840;10.444;2023-02-11T08:36:19;1.60;99.90
26621;DHT22;14253;44.840;10.444;2023-02-11T08:38:46;1.70;99.90
26621;DHT22;14253;44.840;10.444;2023-02-11T08:41:12;1.80;99.90
26621;DHT22;14253;44.840;10.444;2023-02-11T08:43:42;1.70;99.90
26621;DHT22;14253;44.840;10.444;2023-02-11T08:49:00;1.80;99.90
26621;DHT22;14253;44.840;10.444;2023-02-11T08:51:27;1.90;99.90
26621;DHT22;14253;44.840;10.444;2023-02-11T08:53:55;2.20;99.90
26621;DHT22;14253;44.840;10.444;2023-02-11T08:56:21;2.30;99.90
26621;DHT22;14253;44.840;10.444;2023-02-11T08:58:48;2.40;99.90
26621;DHT22;14253;44.840;10.444;2023-02-11T09:01:19;2.50;99.90
26621;DHT22;14253;44.840;10.444;2023-02-11T09:03:46;2.70;99.90
26621;DHT22;14253;44.840;10.444;2023-02-11T09:06:12;2.80;99.90
26621;DHT22;14253;44.840;10.444;2023-02-11T09:08:41;2.80;99.90
26621;DHT22;14253;44.840;10.444;2023-02-11T09:11:08;2.90;99.90
26621;DHT22;14253;44.840;10.444;2023-02-11T09:13:35;2.90;99.90
26621;DHT22;14253;44.840;10.444;2023-02-11T09:16:02;3.10;99.90
26621;DHT22;14253;44.840;10.444;2023-02-11T09:18:29;3.20;99.90
26621;DHT22;14253;44.840;10.444;2023-02-11T09:21:07;3.30;99.90
26621;DHT22;14253;44.840;10.444;2023-02-11T09:23:33;3.50;99.90
26621;DHT22;14253;44.840;10.444;2023-02-11T09:26:10;3.60;99.90
26621;DHT22;14253;44.840;10.444;2023-02-11T09:28:36;3.70;99.90
26621;DHT22;14253;44.840;10.444;2023-02-11T09:31:07;3.90;99.90
26621;DHT22;14253;44.840;10.444;2023-02-11T09:33:34;4.00;99.90
26621;DHT22;14253;44.840;10.444;2023-02-11T09:36:01;4.10;99.90
26621;DHT22;14253;44.840;10.444;2023-02-11T09:38:27;4.30;99.90
26621;DHT22;14253;44.840;10.444;2023-02-11T09:40:53;4.40;99.90
26621;DHT22;14253;44.840;10.444;2023-02-11T09:43:23;4.50;99.90
26621;DHT22;14253;44.840;10.444;2023-02-11T09:45:54;4.60;99.90
26621;DHT22;14253;44.840;10.444;2023-02-11T09:48:21;4.80;99.90
26621;DHT22;14253;44.840;10.444;2023-02-11T09:50:54;4.90;99.90
26621;DHT22;14253;44.840;10.444;2023-02-11T09:53:26;5.10;99.90
26621;DHT22;14253;44.840;10.444;2023-02-11T09:55:53;5.20;99.90
26621;DHT22;14253;44.840;10.444;2023-02-11T09:58:27;5.40;99.90
26621;DHT22;14253;44.840;10.444;2023-02-11T10:12:40;5.90;99.90
26621;DHT22;14253;44.840;10.444;2023-02-11T10:23:37;6.10;99.90
26621;DHT22;14253;44.840;10.444;2023-02-11T10:26:13;6.20;99.90
26621;DHT22;14253;44.840;10.444;2023-02-11T10:28:44;6.30;99.90
26621;DHT22;14253;44.840;10.444;2023-02-11T10:31:21;6.30;99.90
26621;DHT22;14253;44.840;10.444;2023-02-11T10:34:06;6.40;99.90
26621;DHT22;14253;44.840;10.444;2023-02-11T10:36:35;6.60;99.90
26621;DHT22;14253;44.840;10.444;2023-02-11T10:39:23;6.80;99.90
26621;DHT22;14253;44.840;10.444;2023-02-11T10:41:56;6.90;99.90
26621;DHT22;14253;44.840;10.444;2023-02-11T10:46:51;7.00;99.90
26621;DHT22;14253;44.840;10.444;2023-02-11T10:49:38;7.00;99.90
26621;DHT22;14253;44.840;10.444;2023-02-11T10:52:18;6.90;99.90
26621;DHT22;14253;44.840;10.444;2023-02-11T10:55:00;6.80;99.90
26621;DHT22;14253;44.840;10.444;2023-02-11T10:57:33;6.80;99.90
26621;DHT22;14253;44.840;10.444;2023-02-11T11:00:06;6.80;99.90
26621;DHT22;14253;44.840;10.444;2023-02-11T11:02:35;6.80;99.90
26621;DHT22;14253;44.840;10.444;2023-02-11T11:05:16;6.80;99.90
26621;DHT22;14253;44.840;10.444;2023-02-11T11:07:55;6.90;99.90
26621;DHT22;14253;44.840;10.444;2023-02-11T11:12:56;6.80;99.90
26621;DHT22;14253;44.840;10.444;2023-02-11T11:15:28;6.70;99.90
26621;DHT22;14253;44.840;10.444;2023-02-11T11:18:13;6.70;99.90
26621;DHT22;14253;44.840;10.444;2023-02-11T11:23:24;6.80;99.90
26621;DHT22;14253;44.840;10.444;2023-02-11T11:28:31;6.80;99.90
26621;DHT22;14253;44.840;10.444;2023-02-11T11:30:58;6.90;99.90
26621;DHT22;14253;44.840;10.444;2023-02-11T11:33:29;7.00;99.90
26621;DHT22;14253;44.840;10.444;2023-02-11T11:36:08;7.20;99.90
26621;DHT22;14253;44.840;10.444;2023-02-11T11:38:37;7.40;99.90
26621;DHT22;14253;44.840;10.444;2023-02-11T11:41:17;7.60;99.90
26621;DHT22;14253;44.840;10.444;2023-02-11T11:43:55;7.70;99.90
26621;DHT22;14253;44.840;10.444;2023-02-11T11:46:24;7.70;99.90
26621;DHT22;14253;44.840;10.444;2023-02-11T11:48:54;7.90;99.90
26621;DHT22;14253;44.840;10.444;2023-02-11T11:51:23;7.90;99.90
26621;DHT22;14253;44.840;10.444;2023-02-11T11:54:10;7.80;99.90
26621;DHT22;14253;44.840;10.444;2023-02-11T11:56:49;7.90;99.90
26621;DHT22;14253;44.840;10.444;2023-02-11T11:59:15;7.80;99.90
26621;DHT22;14253;44.840;10.444;2023-02-11T12:01:58;7.70;99.90
26621;DHT22;14253;44.840;10.444;2023-02-11T12:23:30;8.30;99.90
26621;DHT22;14253;44.840;10.444;2023-02-11T12:31:44;8.70;99.90
26621;DHT22;14253;44.840;10.444;2023-02-11T12:37:17;9.10;99.90
26621;DHT22;14253;44.840;10.444;2023-02-11T12:50:43;9.90;99.90
26621;DHT22;14253;44.840;10.444;2023-02-11T12:53:35;10.00;99.90
26621;DHT22;14253;44.840;10.444;2023-02-11T12:56:13;9.90;99.90
26621;DHT22;14253;44.840;10.444;2023-02-11T12:58:41;9.80;99.90
26621;DHT22;14253;44.840;10.444;2023-02-11T13:06:39;10.00;99.90
26621;DHT22;14253;44.840;10.444;2023-02-11T13:09:16;10.00;99.90
26621;DHT22;14253;44.840;10.444;2023-02-11T13:11:48;10.00;99.90
26621;DHT22;14253;44.840;10.444;2023-02-11T13:14:32;10.00;99.90
26621;DHT22;14253;44.840;10.444;2023-02-11T13:17:05;9.80;99.90
26621;DHT22;14253;44.840;10.444;2023-02-11T13:19:47;9.70;99.90
26621;DHT22;14253;44.840;10.444;2023-02-11T13:22:43;9.50;99.90
26621;DHT22;14253;44.840;10.444;2023-02-11T13:25:33;9.50;99.90
26621;DHT22;14253;44.840;10.444;2023-02-11T13:28:28;9.50;99.90
26621;DHT22;14253;44.840;10.444;2023-02-11T13:30:59;9.50;99.90
26621;DHT22;14253;44.840;10.444;2023-02-11T13:33:38;9.30;99.90
26621;DHT22;14253;44.840;10.444;2023-02-11T13:38:34;9.30;99.90
26621;DHT22;14253;44.840;10.444;2023-02-11T13:46:27;9.20;99.90
26621;DHT22;14253;44.840;10.444;2023-02-11T13:48:54;9.10;99.90
26621;DHT22;14253;44.840;10.444;2023-02-11T13:51:39;9.00;99.90
26621;DHT22;14253;44.840;10.444;2023-02-11T13:54:07;8.90;99.90
26621;DHT22;14253;44.840;10.444;2023-02-11T13:56:42;8.70;99.90
26621;DHT22;14253;44.840;10.444;2023-02-11T14:11:03;9.20;99.90
26621;DHT22;14253;44.840;10.444;2023-02-11T14:14:00;9.50;99.90
26621;DHT22;14253;44.840;10.444;2023-02-11T14:16:27;9.60;99.90
26621;DHT22;14253;44.840;10.444;2023-02-11T14:23:53;9.60;99.90
26621;DHT22;14253;44.840;10.444;2023-02-11T14:29:15;9.80;99.90
26621;DHT22;14253;44.840;10.444;2023-02-11T14:32:03;10.00;99.90
26621;DHT22;14253;44.840;10.444;2023-02-11T14:34:54;10.20;99.90
26621;DHT22;14253;44.840;10.444;2023-02-11T14:43:38;11.20;99.90
26621;DHT22;14253;44.840;10.444;2023-02-11T14:46:04;11.40;99.90
26621;DHT22;14253;44.840;10.444;2023-02-11T14:48:33;11.80;99.90
26621;DHT22;14253;44.840;10.444;2023-02-11T14:51:05;11.90;99.90
26621;DHT22;14253;44.840;10.444;2023-02-11T14:53:32;11.70;99.90
26621;DHT22;14253;44.840;10.444;2023-02-11T14:55:59;12.10;99.90
26621;DHT22;14253;44.840;10.444;2023-02-11T14:58:31;12.30;99.90
26621;DHT22;14253;44.840;10.444;2023-02-11T15:01:18;12.60;99.90
26621;DHT22;14253;44.840;10.444;2023-02-11T15:03:50;13.10;99.90
26621;DHT22;14253;44.840;10.444;2023-02-11T15:06:20;13.70;99.90
26621;DHT22;14253;44.840;10.444;2023-02-11T15:11:19;13.50;99.90
26621;DHT22;14253;44.840;10.444;2023-02-11T15:13:47;14.10;99.90
26621;DHT22;14253;44.840;10.444;2023-02-11T15:16:24;14.50;99.90
26621;DHT22;14253;44.840;10.444;2023-02-11T15:18:57;14.60;99.90
26621;DHT22;14253;44.840;10.444;2023-02-11T15:21:31;14.60;99.90
26621;DHT22;14253;44.840;10.444;2023-02-11T15:24:21;14.70;99.90
26621;DHT22;14253;44.840;10.444;2023-02-11T15:27:03;14.50;99.90
26621;DHT22;14253;44.840;10.444;2023-02-11T15:29:40;14.40;99.90
26621;DHT22;14253;44.840;10.444;2023-02-11T15:32:16;14.00;99.90
26621;DHT22;14253;44.840;10.444;2023-02-11T15:34:43;13.40;99.90
26621;DHT22;14253;44.840;10.444;2023-02-11T15:37:28;12.50;99.90
26621;DHT22;14253;44.840;10.444;2023-02-11T15:39:54;11.50;99.90
26621;DHT22;14253;44.840;10.444;2023-02-11T15:42:32;10.90;99.90
26621;DHT22;14253;44.840;10.444;2023-02-11T15:48:10;10.00;99.90
26621;DHT22;14253;44.840;10.444;2023-02-11T15:50:47;9.70;99.90
26621;DHT22;14253;44.840;10.444;2023-02-11T15:55:50;9.30;99.90
26621;DHT22;14253;44.840;10.444;2023-02-11T15:58:17;9.10;99.90
26621;DHT22;14253;44.840;10.444;2023-02-11T16:00:49;9.00;99.90
26621;DHT22;14253;44.840;10.444;2023-02-11T16:03:20;9.00;99.90
26621;DHT22;14253;44.840;10.444;2023-02-11T16:05:47;8.90;99.90
26621;DHT22;14253;44.840;10.444;2023-02-11T16:11:01;8.80;99.90
26621;DHT22;14253;44.840;10.444;2023-02-11T16:13:31;8.70;99.90
26621;DHT22;14253;44.840;10.444;2023-02-11T16:16:04;8.60;99.90
26621;DHT22;14253;44.840;10.444;2023-02-11T16:18:50;8.50;99.90
26621;DHT22;14253;44.840;10.444;2023-02-11T16:21:17;8.40;99.90
26621;DHT22;14253;44.840;10.444;2023-02-11T16:23:55;8.20;99.90
26621;DHT22;14253;44.840;10.444;2023-02-11T16:26:32;8.00;99.90
26621;DHT22;14253;44.840;10.444;2023-02-11T16:29:29;7.80;99.90
26621;DHT22;14253;44.840;10.444;2023-02-11T16:32:15;7.60;99.90
26621;DHT22;14253;44.840;10.444;2023-02-11T16:34:41;7.50;99.90
26621;DHT22;14253;44.840;10.444;2023-02-11T16:37:07;7.30;99.90
26621;DHT22;14253;44.840;10.444;2023-02-11T16:39:34;7.20;99.90
26621;DHT22;14253;44.840;10.444;2023-02-11T16:42:00;7.10;99.90
26621;DHT22;14253;44.840;10.444;2023-02-11T16:44:27;7.00;99.90
26621;DHT22;14253;44.840;10.444;2023-02-11T16:46:53;6.80;99.90
26621;DHT22;14253;44.840;10.444;2023-02-11T16:49:31;6.60;99.90
26621;DHT22;14253;44.840;10.444;2023-02-11T16:52:00;6.50;99.90
26621;DHT22;14253;44.840;10.444;2023-02-11T16:54:28;6.40;99.90
26621;DHT22;14253;44.840;10.444;2023-02-11T16:56:54;6.30;99.90
26621;DHT22;14253;44.840;10.444;2023-02-11T16:59:20;6.20;99.90
26621;DHT22;14253;44.840;10.444;2023-02-11T17:01:47;6.10;99.90
26621;DHT22;14253;44.840;10.444;2023-02-11T17:04:24;5.90;99.90
26621;DHT22;14253;44.840;10.444;2023-02-11T17:06:50;5.80;99.90
26621;DHT22;14253;44.840;10.444;2023-02-11T17:09:23;5.70;99.90
26621;DHT22;14253;44.840;10.444;2023-02-11T17:11:50;5.60;99.90
26621;DHT22;14253;44.840;10.444;2023-02-11T17:14:17;5.40;99.90
26621;DHT22;14253;44.840;10.444;2023-02-11T17:16:44;5.20;99.90
26621;DHT22;14253;44.840;10.444;2023-02-11T17:19:12;5.10;99.90
26621;DHT22;14253;44.840;10.444;2023-02-11T17:21:46;4.90;99.90
26621;DHT22;14253;44.840;10.444;2023-02-11T17:24:12;4.80;99.90
26621;DHT22;14253;44.840;10.444;2023-02-11T17:26:42;4.70;99.90
26621;DHT22;14253;44.840;10.444;2023-02-11T17:29:12;4.60;99.90
26621;DHT22;14253;44.840;10.444;2023-02-11T17:31:39;4.60;99.90
26621;DHT22;14253;44.840;10.444;2023-02-11T17:34:05;4.50;99.90
26621;DHT22;14253;44.840;10.444;2023-02-11T17:36:31;4.40;99.90
26621;DHT22;14253;44.840;10.444;2023-02-11T17:38:59;4.40;99.90
26621;DHT22;14253;44.840;10.444;2023-02-11T17:41:26;4.30;99.90
26621;DHT22;14253;44.840;10.444;2023-02-11T17:43:52;4.30;99.90
26621;DHT22;14253;44.840;10.444;2023-02-11T17:46:18;4.20;99.90
26621;DHT22;14253;44.840;10.444;2023-02-11T17:48:44;4.10;99.90
26621;DHT22;14253;44.840;10.444;2023-02-11T17:51:23;4.00;99.90
26621;DHT22;14253;44.840;10.444;2023-02-11T17:53:50;3.90;99.90
26621;DHT22;14253;44.840;10.444;2023-02-11T17:56:16;3.90;99.90
26621;DHT22;14253;44.840;10.444;2023-02-11T17:58:42;3.80;99.90
26621;DHT22;14253;44.840;10.444;2023-02-11T18:01:07;3.80;99.90
26621;DHT22;14253;44.840;10.444;2023-02-11T18:03:33;3.70;99.90
26621;DHT22;14253;44.840;10.444;2023-02-11T18:06:01;3.70;99.90
26621;DHT22;14253;44.840;10.444;2023-02-11T18:08:27;3.60;99.90
26621;DHT22;14253;44.840;10.444;2023-02-11T18:10:53;3.60;99.90
26621;DHT22;14253;44.840;10.444;2023-02-11T18:13:19;3.50;99.90
26621;DHT22;14253;44.840;10.444;2023-02-11T18:15:45;3.40;99.90
26621;DHT22;14253;44.840;10.444;2023-02-11T18:18:12;3.40;99.90
26621;DHT22;14253;44.840;10.444;2023-02-11T18:20:38;3.40;99.90
26621;DHT22;14253;44.840;10.444;2023-02-11T18:23:08;3.40;99.90
26621;DHT22;14253;44.840;10.444;2023-02-11T18:25:34;3.40;99.90
26621;DHT22;14253;44.840;10.444;2023-02-11T18:28:01;3.30;99.90
26621;DHT22;14253;44.840;10.444;2023-02-11T18:30:28;3.30;99.90
26621;DHT22;14253;44.840;10.444;2023-02-11T18:32:54;3.30;99.90